Sds Green — ICOK — position and weather

sailwx.info

Track history (hours):
 
Tides and Currents Weather Stations Pressure Air Temp Water Temp Dewpoint Dewpoint Depression Visibility Wind Speed Wind Dir Waves Ship Positions

Sds Green

Last reported at 2017-Jun-15 07:01 UTC. Time now 2017-Jun-26 18:51 UTC.
Position N 38°17' E 020°11'.
Warning: this ship's position is 11 days out of date.

Length 108 m; draft 6.4 m.

Type: Cargo ship. MMSI: 247292200.

Date/timePositionNaut miles runAvg speedWind from/ knotsBaromVisibWave heightAir tempDewpointWater temp
2017-Jun-15 07:01N 38°17' E 020°11'110.9
2017-Jun-15 06:53N 38°18' E 020°10'410.9
2017-Jun-15 06:29N 38°22' E 020°06'1410.8
2017-Jun-15 05:12N 38°34' E 019°57'210.6
2017-Jun-15 05:00N 38°35' E 019°56'510.2
2017-Jun-15 04:30N 38°40' E 019°52'610.2
2017-Jun-15 03:56N 38°45' E 019°48'510.5
2017-Jun-15 03:30N 38°49' E 019°45'510.6
2017-Jun-15 03:00N 38°53' E 019°42'610.7
2017-Jun-15 02:29N 38°58' E 019°38'510.5
2017-Jun-15 02:00N 39°02' E 019°34'610.6
2017-Jun-15 01:28N 39°07' E 019°30'1110.4
2017-Jun-15 00:26N 39°16' E 019°23'3110.5
2017-Jun-14 21:28N 39°42' E 019°02'  
2017-Jun-05 23:21N 43°42' E 014°19'411.5
2017-Jun-05 23:00N 43°43' E 014°13'611.6
2017-Jun-05 22:30N 43°45' E 014°06'612.0
2017-Jun-05 22:00N 43°48' E 013°59'612.3
2017-Jun-05 21:30N 43°51' E 013°52'612.2
2017-Jun-05 21:00N 43°55' E 013°45'612.2
2017-Jun-05 20:30N 43°58' E 013°38'612.1
2017-Jun-05 20:00N 44°01' E 013°30'712.1
2017-Jun-05 19:26N 44°05' E 013°22'511.9
2017-Jun-05 19:00N 44°08' E 013°16'611.5
2017-Jun-05 18:30N 44°11' E 013°10'611.1
2017-Jun-05 18:00N 44°13' E 013°03'611.0
2017-Jun-05 17:30N 44°17' E 012°57'511.0
2017-Jun-05 17:00N 44°20' E 012°51'610.9
2017-Jun-05 16:30N 44°24' E 012°45'510.9
2017-Jun-05 16:00N 44°27' E 012°38'511.0
2017-Jun-05 15:30N 44°29' E 012°31'2 4.3
2017-Jun-05 15:00N 44°30' E 012°29'0 0.0
2017-Jun-05 14:30N 44°30' E 012°29'0 0.0
2017-Jun-05 13:30N 44°30' E 012°29'0 0.0
2017-Jun-05 12:57N 44°30' E 012°29'0 0.0
2017-Jun-05 12:27N 44°30' E 012°29'0 0.0
2017-Jun-05 11:54N 44°30' E 012°29'0 0.0
2017-Jun-05 11:09N 44°30' E 012°29'0 0.0
2017-Jun-05 10:48N 44°30' E 012°29'0 0.0
2017-Jun-05 10:24N 44°30' E 012°29'0 0.0
2017-Jun-05 10:00N 44°30' E 012°29'0 0.0
2017-Jun-05 09:30N 44°30' E 012°29'0 0.0
2017-Jun-05 08:57N 44°30' E 012°29'0 0.0
2017-Jun-05 08:30N 44°30' E 012°29'0 0.0
2017-Jun-05 07:54N 44°30' E 012°29'0 0.0
2017-Jun-05 07:24N 44°30' E 012°29'  
Track history (hours):
 
Tides and Currents Weather Stations Pressure Air Temp Water Temp Dewpoint Dewpoint Depression Visibility Wind Speed Wind Dir Waves Ship Positions

Sds Green

Last reported at 2017-Jun-15 07:01 UTC. Time now 2017-Jun-26 18:51 UTC.
Position N 38°17' E 020°11'.
Warning: this ship's position is 11 days out of date.

Length 108 m; draft 6.4 m.

Type: Cargo ship. MMSI: 247292200.

Date/timePositionNaut miles runAvg speedWind from/ knotsBaromVisibWave heightAir tempDewpointWater temp
2017-Jun-15 07:01N 38°17' E 020°11'110.9
2017-Jun-15 06:53N 38°18' E 020°10'410.9
2017-Jun-15 06:29N 38°22' E 020°06'1410.8
2017-Jun-15 05:12N 38°34' E 019°57'210.6
2017-Jun-15 05:00N 38°35' E 019°56'510.2
2017-Jun-15 04:30N 38°40' E 019°52'610.2
2017-Jun-15 03:56N 38°45' E 019°48'510.5
2017-Jun-15 03:30N 38°49' E 019°45'510.6
2017-Jun-15 03:00N 38°53' E 019°42'610.7
2017-Jun-15 02:29N 38°58' E 019°38'510.5
2017-Jun-15 02:00N 39°02' E 019°34'610.6
2017-Jun-15 01:28N 39°07' E 019°30'1110.4
2017-Jun-15 00:26N 39°16' E 019°23'3110.5
2017-Jun-14 21:28N 39°42' E 019°02'  
2017-Jun-05 23:21N 43°42' E 014°19'411.5
2017-Jun-05 23:00N 43°43' E 014°13'611.6
2017-Jun-05 22:30N 43°45' E 014°06'612.0
2017-Jun-05 22:00N 43°48' E 013°59'612.3
2017-Jun-05 21:30N 43°51' E 013°52'612.2
2017-Jun-05 21:00N 43°55' E 013°45'612.2
2017-Jun-05 20:30N 43°58' E 013°38'612.1
2017-Jun-05 20:00N 44°01' E 013°30'712.1
2017-Jun-05 19:26N 44°05' E 013°22'511.9
2017-Jun-05 19:00N 44°08' E 013°16'611.5
2017-Jun-05 18:30N 44°11' E 013°10'611.1
2017-Jun-05 18:00N 44°13' E 013°03'611.0
2017-Jun-05 17:30N 44°17' E 012°57'511.0
2017-Jun-05 17:00N 44°20' E 012°51'610.9
2017-Jun-05 16:30N 44°24' E 012°45'510.9
2017-Jun-05 16:00N 44°27' E 012°38'511.0
2017-Jun-05 15:30N 44°29' E 012°31'2 4.3
2017-Jun-05 15:00N 44°30' E 012°29'0 0.0
2017-Jun-05 14:30N 44°30' E 012°29'0 0.0
2017-Jun-05 13:30N 44°30' E 012°29'0 0.0
2017-Jun-05 12:57N 44°30' E 012°29'0 0.0
2017-Jun-05 12:27N 44°30' E 012°29'0 0.0
2017-Jun-05 11:54N 44°30' E 012°29'0 0.0
2017-Jun-05 11:09N 44°30' E 012°29'0 0.0
2017-Jun-05 10:48N 44°30' E 012°29'0 0.0
2017-Jun-05 10:24N 44°30' E 012°29'0 0.0
2017-Jun-05 10:00N 44°30' E 012°29'0 0.0
2017-Jun-05 09:30N 44°30' E 012°29'0 0.0
2017-Jun-05 08:57N 44°30' E 012°29'0 0.0
2017-Jun-05 08:30N 44°30' E 012°29'0 0.0
2017-Jun-05 07:54N 44°30' E 012°29'0 0.0
2017-Jun-05 07:24N 44°30' E 012°29'  

Dump ship's entire track history